sensor_id;sensor_type;location;lat;lon;timestamp;P1;durP1;ratioP1;P2;durP2;ratioP2
80185;SDS011;69904;52.122;5.422;2024-02-04T00:00:40;4.68;;;3.15;;
80185;SDS011;69904;52.122;5.422;2024-02-04T00:03:07;4.13;;;2.28;;
80185;SDS011;69904;52.122;5.422;2024-02-04T00:05:33;6.15;;;2.67;;
80185;SDS011;69904;52.122;5.422;2024-02-04T00:08:00;5.97;;;2.40;;
80185;SDS011;69904;52.122;5.422;2024-02-04T00:10:28;3.85;;;1.70;;
80185;SDS011;69904;52.122;5.422;2024-02-04T00:12:54;4.38;;;1.63;;
80185;SDS011;69904;52.122;5.422;2024-02-04T00:15:21;2.63;;;1.30;;
80185;SDS011;69904;52.122;5.422;2024-02-04T00:17:48;1.98;;;1.15;;
80185;SDS011;69904;52.122;5.422;2024-02-04T00:20:15;3.95;;;1.65;;
80185;SDS011;69904;52.122;5.422;2024-02-04T00:22:41;4.15;;;1.42;;
80185;SDS011;69904;52.122;5.422;2024-02-04T00:25:08;4.72;;;2.00;;
80185;SDS011;69904;52.122;5.422;2024-02-04T00:27:38;4.65;;;1.90;;
80185;SDS011;69904;52.122;5.422;2024-02-04T00:30:04;5.05;;;2.55;;
80185;SDS011;69904;52.122;5.422;2024-02-04T00:37:24;4.53;;;1.83;;
80185;SDS011;69904;52.122;5.422;2024-02-04T00:39:51;3.80;;;2.00;;
80185;SDS011;69904;52.122;5.422;2024-02-04T00:42:17;4.40;;;2.25;;
80185;SDS011;69904;52.122;5.422;2024-02-04T00:44:44;3.47;;;1.80;;
80185;SDS011;69904;52.122;5.422;2024-02-04T00:47:10;9.18;;;2.38;;
80185;SDS011;69904;52.122;5.422;2024-02-04T00:49:37;4.90;;;2.47;;
80185;SDS011;69904;52.122;5.422;2024-02-04T00:52:03;5.35;;;1.95;;
80185;SDS011;69904;52.122;5.422;2024-02-04T00:54:30;9.45;;;2.80;;
80185;SDS011;69904;52.122;5.422;2024-02-04T00:56:57;8.73;;;3.33;;
80185;SDS011;69904;52.122;5.422;2024-02-04T00:59:24;10.15;;;3.92;;
80185;SDS011;69904;52.122;5.422;2024-02-04T01:01:50;7.40;;;3.75;;
80185;SDS011;69904;52.122;5.422;2024-02-04T01:04:17;8.70;;;3.78;;
80185;SDS011;69904;52.122;5.422;2024-02-04T01:06:43;8.80;;;3.70;;
80185;SDS011;69904;52.122;5.422;2024-02-04T01:09:25;9.63;;;3.55;;
80185;SDS011;69904;52.122;5.422;2024-02-04T01:11:52;9.57;;;4.20;;
80185;SDS011;69904;52.122;5.422;2024-02-04T01:14:19;7.97;;;3.65;;
80185;SDS011;69904;52.122;5.422;2024-02-04T01:16:46;11.82;;;4.03;;
80185;SDS011;69904;52.122;5.422;2024-02-04T01:19:12;9.52;;;3.70;;
80185;SDS011;69904;52.122;5.422;2024-02-04T01:21:39;10.38;;;3.85;;
80185;SDS011;69904;52.122;5.422;2024-02-04T01:24:05;9.57;;;3.97;;
80185;SDS011;69904;52.122;5.422;2024-02-04T01:26:32;6.57;;;3.63;;
80185;SDS011;69904;52.122;5.422;2024-02-04T01:28:58;7.47;;;3.55;;
80185;SDS011;69904;52.122;5.422;2024-02-04T01:31:25;7.25;;;3.35;;
80185;SDS011;69904;52.122;5.422;2024-02-04T01:33:51;8.75;;;3.92;;
80185;SDS011;69904;52.122;5.422;2024-02-04T01:36:18;5.68;;;3.05;;
80185;SDS011;69904;52.122;5.422;2024-02-04T01:38:45;8.13;;;3.08;;
80185;SDS011;69904;52.122;5.422;2024-02-04T01:41:11;13.20;;;4.13;;
80185;SDS011;69904;52.122;5.422;2024-02-04T01:43:38;11.27;;;3.80;;
80185;SDS011;69904;52.122;5.422;2024-02-04T01:46:04;7.85;;;3.13;;
80185;SDS011;69904;52.122;5.422;2024-02-04T01:48:34;7.32;;;3.00;;
80185;SDS011;69904;52.122;5.422;2024-02-04T01:51:01;8.98;;;2.60;;
80185;SDS011;69904;52.122;5.422;2024-02-04T01:53:28;12.20;;;3.22;;
80185;SDS011;69904;52.122;5.422;2024-02-04T01:55:56;7.43;;;3.25;;
80185;SDS011;69904;52.122;5.422;2024-02-04T01:58:23;9.48;;;3.30;;
80185;SDS011;69904;52.122;5.422;2024-02-04T02:00:50;12.02;;;3.45;;
80185;SDS011;69904;52.122;5.422;2024-02-04T02:03:18;14.23;;;3.25;;
80185;SDS011;69904;52.122;5.422;2024-02-04T02:05:45;8.95;;;3.40;;
80185;SDS011;69904;52.122;5.422;2024-02-04T02:08:12;10.48;;;3.60;;
80185;SDS011;69904;52.122;5.422;2024-02-04T02:10:39;11.95;;;3.75;;
80185;SDS011;69904;52.122;5.422;2024-02-04T02:13:14;9.43;;;4.28;;
80185;SDS011;69904;52.122;5.422;2024-02-04T02:15:45;9.02;;;3.97;;
80185;SDS011;69904;52.122;5.422;2024-02-04T02:18:17;5.35;;;2.90;;
80185;SDS011;69904;52.122;5.422;2024-02-04T02:24:30;8.50;;;3.60;;
80185;SDS011;69904;52.122;5.422;2024-02-04T02:26:42;7.78;;;3.33;;
80185;SDS011;69904;52.122;5.422;2024-02-04T02:29:09;10.25;;;3.30;;
80185;SDS011;69904;52.122;5.422;2024-02-04T02:31:36;10.68;;;4.03;;
80185;SDS011;69904;52.122;5.422;2024-02-04T02:34:14;12.35;;;3.83;;
80185;SDS011;69904;52.122;5.422;2024-02-04T02:37:03;9.77;;;3.13;;
80185;SDS011;69904;52.122;5.422;2024-02-04T02:42:42;10.00;;;3.33;;
80185;SDS011;69904;52.122;5.422;2024-02-04T02:45:12;8.63;;;3.28;;
80185;SDS011;69904;52.122;5.422;2024-02-04T02:47:39;9.18;;;3.08;;
80185;SDS011;69904;52.122;5.422;2024-02-04T02:50:08;5.32;;;2.70;;
80185;SDS011;69904;52.122;5.422;2024-02-04T02:52:35;9.52;;;3.83;;
80185;SDS011;69904;52.122;5.422;2024-02-04T02:55:01;9.80;;;3.53;;
80185;SDS011;69904;52.122;5.422;2024-02-04T02:57:28;8.73;;;3.40;;
80185;SDS011;69904;52.122;5.422;2024-02-04T02:59:55;8.63;;;3.08;;
80185;SDS011;69904;52.122;5.422;2024-02-04T03:02:21;11.73;;;4.07;;
80185;SDS011;69904;52.122;5.422;2024-02-04T03:04:48;8.85;;;3.70;;
80185;SDS011;69904;52.122;5.422;2024-02-04T03:07:14;7.43;;;3.83;;
80185;SDS011;69904;52.122;5.422;2024-02-04T03:09:41;9.80;;;3.50;;
80185;SDS011;69904;52.122;5.422;2024-02-04T03:12:07;8.30;;;3.90;;
80185;SDS011;69904;52.122;5.422;2024-02-04T03:14:34;8.15;;;4.05;;
80185;SDS011;69904;52.122;5.422;2024-02-04T03:17:01;10.07;;;4.30;;
80185;SDS011;69904;52.122;5.422;2024-02-04T03:19:27;6.47;;;3.05;;
80185;SDS011;69904;52.122;5.422;2024-02-04T03:21:54;7.75;;;3.72;;
80185;SDS011;69904;52.122;5.422;2024-02-04T03:24:20;9.00;;;3.63;;
80185;SDS011;69904;52.122;5.422;2024-02-04T03:26:47;10.07;;;3.40;;
80185;SDS011;69904;52.122;5.422;2024-02-04T03:29:13;10.75;;;3.38;;
80185;SDS011;69904;52.122;5.422;2024-02-04T03:31:40;9.43;;;3.20;;
80185;SDS011;69904;52.122;5.422;2024-02-04T03:34:06;7.47;;;3.85;;
80185;SDS011;69904;52.122;5.422;2024-02-04T03:36:33;6.85;;;2.78;;
80185;SDS011;69904;52.122;5.422;2024-02-04T03:38:59;13.10;;;3.85;;
80185;SDS011;69904;52.122;5.422;2024-02-04T03:41:26;12.20;;;3.25;;
80185;SDS011;69904;52.122;5.422;2024-02-04T03:43:52;5.38;;;2.10;;
80185;SDS011;69904;52.122;5.422;2024-02-04T03:46:21;4.10;;;1.77;;
80185;SDS011;69904;52.122;5.422;2024-02-04T03:48:47;7.05;;;2.70;;
80185;SDS011;69904;52.122;5.422;2024-02-04T03:51:15;8.00;;;2.33;;
80185;SDS011;69904;52.122;5.422;2024-02-04T03:53:43;7.40;;;1.52;;
80185;SDS011;69904;52.122;5.422;2024-02-04T03:56:10;4.43;;;1.75;;
80185;SDS011;69904;52.122;5.422;2024-02-04T03:58:36;6.80;;;1.48;;
80185;SDS011;69904;52.122;5.422;2024-02-04T04:01:03;6.60;;;1.73;;
80185;SDS011;69904;52.122;5.422;2024-02-04T04:03:30;4.55;;;1.33;;
80185;SDS011;69904;52.122;5.422;2024-02-04T04:05:56;5.03;;;1.08;;
80185;SDS011;69904;52.122;5.422;2024-02-04T04:08:23;4.18;;;1.02;;
80185;SDS011;69904;52.122;5.422;2024-02-04T04:10:50;3.22;;;1.38;;
80185;SDS011;69904;52.122;5.422;2024-02-04T04:13:17;7.32;;;1.40;;
80185;SDS011;69904;52.122;5.422;2024-02-04T04:15:43;3.72;;;1.20;;
80185;SDS011;69904;52.122;5.422;2024-02-04T04:18:10;7.72;;;1.55;;
80185;SDS011;69904;52.122;5.422;2024-02-04T04:20:39;4.78;;;1.65;;
80185;SDS011;69904;52.122;5.422;2024-02-04T04:25:33;2.60;;;0.80;;
80185;SDS011;69904;52.122;5.422;2024-02-04T04:27:59;7.40;;;1.55;;
80185;SDS011;69904;52.122;5.422;2024-02-04T04:30:26;3.30;;;1.60;;
80185;SDS011;69904;52.122;5.422;2024-02-04T04:32:52;4.32;;;1.83;;
80185;SDS011;69904;52.122;5.422;2024-02-04T04:35:19;4.65;;;1.95;;
80185;SDS011;69904;52.122;5.422;2024-02-04T04:37:45;5.53;;;1.85;;
80185;SDS011;69904;52.122;5.422;2024-02-04T04:42:39;8.43;;;2.45;;
80185;SDS011;69904;52.122;5.422;2024-02-04T04:45:06;3.88;;;1.70;;
80185;SDS011;69904;52.122;5.422;2024-02-04T04:47:34;4.78;;;2.05;;
80185;SDS011;69904;52.122;5.422;2024-02-04T04:50:01;10.85;;;2.35;;
80185;SDS011;69904;52.122;5.422;2024-02-04T04:52:28;8.23;;;2.08;;
80185;SDS011;69904;52.122;5.422;2024-02-04T04:54:54;7.07;;;1.95;;
80185;SDS011;69904;52.122;5.422;2024-02-04T04:57:21;5.47;;;2.33;;
80185;SDS011;69904;52.122;5.422;2024-02-04T04:59:48;9.45;;;2.40;;
80185;SDS011;69904;52.122;5.422;2024-02-04T05:02:14;4.75;;;1.40;;
80185;SDS011;69904;52.122;5.422;2024-02-04T05:04:44;5.45;;;1.38;;
80185;SDS011;69904;52.122;5.422;2024-02-04T05:07:11;2.42;;;1.30;;
80185;SDS011;69904;52.122;5.422;2024-02-04T05:09:38;7.28;;;1.83;;
80185;SDS011;69904;52.122;5.422;2024-02-04T05:12:05;4.80;;;1.58;;
80185;SDS011;69904;52.122;5.422;2024-02-04T05:14:34;5.20;;;1.88;;
80185;SDS011;69904;52.122;5.422;2024-02-04T05:17:00;8.65;;;2.08;;
80185;SDS011;69904;52.122;5.422;2024-02-04T05:19:27;7.28;;;1.88;;
80185;SDS011;69904;52.122;5.422;2024-02-04T05:21:54;5.07;;;1.45;;
80185;SDS011;69904;52.122;5.422;2024-02-04T05:24:20;6.00;;;1.70;;
80185;SDS011;69904;52.122;5.422;2024-02-04T05:26:47;5.43;;;2.38;;
80185;SDS011;69904;52.122;5.422;2024-02-04T05:29:13;9.35;;;1.92;;
80185;SDS011;69904;52.122;5.422;2024-02-04T05:31:40;8.63;;;2.58;;
80185;SDS011;69904;52.122;5.422;2024-02-04T05:34:10;5.43;;;1.83;;
80185;SDS011;69904;52.122;5.422;2024-02-04T05:36:37;9.25;;;2.53;;
80185;SDS011;69904;52.122;5.422;2024-02-04T05:39:13;5.95;;;2.15;;
80185;SDS011;69904;52.122;5.422;2024-02-04T05:41:41;7.75;;;2.58;;
80185;SDS011;69904;52.122;5.422;2024-02-04T05:44:08;5.88;;;2.58;;
80185;SDS011;69904;52.122;5.422;2024-02-04T05:46:38;4.75;;;2.22;;
80185;SDS011;69904;52.122;5.422;2024-02-04T05:49:05;5.40;;;1.88;;
80185;SDS011;69904;52.122;5.422;2024-02-04T05:51:32;7.22;;;1.88;;
80185;SDS011;69904;52.122;5.422;2024-02-04T05:54:03;7.20;;;1.92;;
80185;SDS011;69904;52.122;5.422;2024-02-04T05:56:29;5.90;;;2.17;;
80185;SDS011;69904;52.122;5.422;2024-02-04T05:58:56;7.43;;;2.03;;
80185;SDS011;69904;52.122;5.422;2024-02-04T06:01:22;7.88;;;2.17;;
80185;SDS011;69904;52.122;5.422;2024-02-04T06:03:49;6.45;;;1.73;;
80185;SDS011;69904;52.122;5.422;2024-02-04T06:06:16;9.18;;;2.00;;
80185;SDS011;69904;52.122;5.422;2024-02-04T06:08:46;6.00;;;2.13;;
80185;SDS011;69904;52.122;5.422;2024-02-04T06:13:40;7.50;;;2.25;;
80185;SDS011;69904;52.122;5.422;2024-02-04T06:16:07;3.20;;;2.15;;
80185;SDS011;69904;52.122;5.422;2024-02-04T06:18:36;4.80;;;1.90;;
80185;SDS011;69904;52.122;5.422;2024-02-04T06:21:05;9.07;;;3.25;;
80185;SDS011;69904;52.122;5.422;2024-02-04T06:23:33;5.80;;;2.30;;
80185;SDS011;69904;52.122;5.422;2024-02-04T06:26:00;4.28;;;2.30;;
80185;SDS011;69904;52.122;5.422;2024-02-04T06:28:27;7.80;;;2.40;;
80185;SDS011;69904;52.122;5.422;2024-02-04T06:30:54;7.97;;;2.60;;
80185;SDS011;69904;52.122;5.422;2024-02-04T06:33:21;7.78;;;2.95;;
80185;SDS011;69904;52.122;5.422;2024-02-04T06:35:49;8.07;;;3.42;;
80185;SDS011;69904;52.122;5.422;2024-02-04T06:38:16;7.80;;;3.30;;
80185;SDS011;69904;52.122;5.422;2024-02-04T06:40:43;10.40;;;3.97;;
80185;SDS011;69904;52.122;5.422;2024-02-04T06:43:09;11.27;;;3.95;;
80185;SDS011;69904;52.122;5.422;2024-02-04T06:45:36;8.43;;;3.58;;
80185;SDS011;69904;52.122;5.422;2024-02-04T06:48:02;9.70;;;4.63;;
80185;SDS011;69904;52.122;5.422;2024-02-04T06:50:29;7.57;;;4.20;;
80185;SDS011;69904;52.122;5.422;2024-02-04T06:52:55;9.88;;;4.15;;
80185;SDS011;69904;52.122;5.422;2024-02-04T06:55:22;7.57;;;4.45;;
80185;SDS011;69904;52.122;5.422;2024-02-04T06:57:48;9.60;;;4.07;;
80185;SDS011;69904;52.122;5.422;2024-02-04T07:00:15;10.82;;;4.90;;
80185;SDS011;69904;52.122;5.422;2024-02-04T07:02:42;10.18;;;4.90;;
80185;SDS011;69904;52.122;5.422;2024-02-04T07:05:08;10.90;;;4.85;;
80185;SDS011;69904;52.122;5.422;2024-02-04T07:07:36;8.52;;;4.00;;
80185;SDS011;69904;52.122;5.422;2024-02-04T07:10:03;11.02;;;4.68;;
80185;SDS011;69904;52.122;5.422;2024-02-04T07:12:30;11.98;;;4.68;;
80185;SDS011;69904;52.122;5.422;2024-02-04T07:14:56;10.57;;;4.63;;
80185;SDS011;69904;52.122;5.422;2024-02-04T07:17:23;12.20;;;5.00;;
80185;SDS011;69904;52.122;5.422;2024-02-04T07:19:49;11.73;;;5.15;;
80185;SDS011;69904;52.122;5.422;2024-02-04T07:22:16;11.30;;;4.43;;
80185;SDS011;69904;52.122;5.422;2024-02-04T07:24:42;6.82;;;3.92;;
80185;SDS011;69904;52.122;5.422;2024-02-04T07:27:09;7.80;;;4.15;;
80185;SDS011;69904;52.122;5.422;2024-02-04T07:29:35;6.25;;;3.83;;
80185;SDS011;69904;52.122;5.422;2024-02-04T07:32:02;9.10;;;4.97;;
80185;SDS011;69904;52.122;5.422;2024-02-04T07:34:29;6.28;;;4.07;;
80185;SDS011;69904;52.122;5.422;2024-02-04T07:36:55;10.77;;;4.82;;
80185;SDS011;69904;52.122;5.422;2024-02-04T07:39:22;6.85;;;4.00;;
80185;SDS011;69904;52.122;5.422;2024-02-04T07:41:48;7.00;;;3.40;;
80185;SDS011;69904;52.122;5.422;2024-02-04T07:44:14;6.43;;;3.70;;
80185;SDS011;69904;52.122;5.422;2024-02-04T07:46:41;10.18;;;3.42;;
80185;SDS011;69904;52.122;5.422;2024-02-04T07:49:07;7.00;;;3.25;;
80185;SDS011;69904;52.122;5.422;2024-02-04T07:51:34;6.50;;;3.05;;
80185;SDS011;69904;52.122;5.422;2024-02-04T07:54:02;4.47;;;2.90;;
80185;SDS011;69904;52.122;5.422;2024-02-04T07:56:29;6.30;;;3.35;;
80185;SDS011;69904;52.122;5.422;2024-02-04T07:58:55;8.45;;;2.85;;
80185;SDS011;69904;52.122;5.422;2024-02-04T08:01:22;6.78;;;2.38;;
80185;SDS011;69904;52.122;5.422;2024-02-04T08:03:50;6.50;;;2.92;;
80185;SDS011;69904;52.122;5.422;2024-02-04T08:06:17;5.97;;;2.20;;
80185;SDS011;69904;52.122;5.422;2024-02-04T08:08:43;4.75;;;1.73;;
80185;SDS011;69904;52.122;5.422;2024-02-04T08:11:16;7.00;;;2.08;;
80185;SDS011;69904;52.122;5.422;2024-02-04T08:13:43;2.55;;;1.55;;
80185;SDS011;69904;52.122;5.422;2024-02-04T08:16:10;6.60;;;1.83;;
80185;SDS011;69904;52.122;5.422;2024-02-04T08:18:37;5.68;;;1.63;;
80185;SDS011;69904;52.122;5.422;2024-02-04T08:21:04;4.07;;;1.63;;
80185;SDS011;69904;52.122;5.422;2024-02-04T08:23:30;3.95;;;1.50;;
80185;SDS011;69904;52.122;5.422;2024-02-04T08:25:58;8.30;;;1.70;;
80185;SDS011;69904;52.122;5.422;2024-02-04T08:28:25;5.45;;;1.77;;
80185;SDS011;69904;52.122;5.422;2024-02-04T08:30:52;6.10;;;1.48;;
80185;SDS011;69904;52.122;5.422;2024-02-04T08:33:18;4.05;;;1.33;;
80185;SDS011;69904;52.122;5.422;2024-02-04T08:35:45;6.78;;;1.67;;
80185;SDS011;69904;52.122;5.422;2024-02-04T08:38:11;6.82;;;1.70;;
80185;SDS011;69904;52.122;5.422;2024-02-04T08:40:38;3.03;;;1.23;;
80185;SDS011;69904;52.122;5.422;2024-02-04T08:43:04;5.25;;;1.20;;
80185;SDS011;69904;52.122;5.422;2024-02-04T08:45:31;6.22;;;1.27;;
80185;SDS011;69904;52.122;5.422;2024-02-04T08:47:58;6.25;;;1.58;;
80185;SDS011;69904;52.122;5.422;2024-02-04T08:50:24;1.80;;;0.85;;
80185;SDS011;69904;52.122;5.422;2024-02-04T08:52:51;3.15;;;1.48;;
80185;SDS011;69904;52.122;5.422;2024-02-04T08:55:17;3.53;;;1.23;;
80185;SDS011;69904;52.122;5.422;2024-02-04T08:57:44;2.15;;;1.17;;
80185;SDS011;69904;52.122;5.422;2024-02-04T09:02:38;6.25;;;1.75;;
80185;SDS011;69904;52.122;5.422;2024-02-04T09:05:04;4.88;;;2.50;;
80185;SDS011;69904;52.122;5.422;2024-02-04T09:07:31;3.70;;;2.22;;
80185;SDS011;69904;52.122;5.422;2024-02-04T09:09:59;3.50;;;2.53;;
80185;SDS011;69904;52.122;5.422;2024-02-04T09:12:26;4.85;;;2.53;;
80185;SDS011;69904;52.122;5.422;2024-02-04T09:14:53;3.33;;;2.53;;
80185;SDS011;69904;52.122;5.422;2024-02-04T09:17:19;3.40;;;2.28;;
80185;SDS011;69904;52.122;5.422;2024-02-04T09:19:45;3.25;;;2.28;;
80185;SDS011;69904;52.122;5.422;2024-02-04T09:22:12;6.13;;;2.20;;
80185;SDS011;69904;52.122;5.422;2024-02-04T09:24:39;5.72;;;2.47;;
80185;SDS011;69904;52.122;5.422;2024-02-04T09:27:05;4.55;;;2.38;;
80185;SDS011;69904;52.122;5.422;2024-02-04T09:29:32;4.80;;;2.22;;
80185;SDS011;69904;52.122;5.422;2024-02-04T09:31:58;6.90;;;2.25;;
80185;SDS011;69904;52.122;5.422;2024-02-04T09:34:25;4.45;;;2.20;;
80185;SDS011;69904;52.122;5.422;2024-02-04T09:36:52;4.28;;;2.10;;
80185;SDS011;69904;52.122;5.422;2024-02-04T09:39:19;1.83;;;1.38;;
80185;SDS011;69904;52.122;5.422;2024-02-04T09:41:46;3.97;;;1.67;;
80185;SDS011;69904;52.122;5.422;2024-02-04T09:44:12;7.22;;;2.28;;
80185;SDS011;69904;52.122;5.422;2024-02-04T09:46:43;4.22;;;1.48;;
80185;SDS011;69904;52.122;5.422;2024-02-04T09:49:09;4.18;;;1.55;;
80185;SDS011;69904;52.122;5.422;2024-02-04T09:51:39;3.42;;;1.42;;
80185;SDS011;69904;52.122;5.422;2024-02-04T09:54:07;6.25;;;1.63;;
80185;SDS011;69904;52.122;5.422;2024-02-04T09:56:37;4.28;;;1.23;;
80185;SDS011;69904;52.122;5.422;2024-02-04T09:59:04;3.85;;;1.23;;
80185;SDS011;69904;52.122;5.422;2024-02-04T10:01:31;1.88;;;0.90;;
80185;SDS011;69904;52.122;5.422;2024-02-04T10:03:58;3.72;;;1.10;;
80185;SDS011;69904;52.122;5.422;2024-02-04T10:06:25;4.72;;;0.95;;
80185;SDS011;69904;52.122;5.422;2024-02-04T10:08:52;2.92;;;0.95;;
80185;SDS011;69904;52.122;5.422;2024-02-04T10:13:47;2.03;;;1.23;;
80185;SDS011;69904;52.122;5.422;2024-02-04T10:16:14;2.72;;;1.02;;
80185;SDS011;69904;52.122;5.422;2024-02-04T10:18:46;2.17;;;0.90;;
80185;SDS011;69904;52.122;5.422;2024-02-04T10:23:43;1.55;;;0.98;;
80185;SDS011;69904;52.122;5.422;2024-02-04T10:26:09;1.75;;;0.70;;
80185;SDS011;69904;52.122;5.422;2024-02-04T10:28:39;2.25;;;0.75;;
80185;SDS011;69904;52.122;5.422;2024-02-04T10:31:10;4.70;;;1.13;;
80185;SDS011;69904;52.122;5.422;2024-02-04T10:33:37;2.55;;;0.73;;
80185;SDS011;69904;52.122;5.422;2024-02-04T10:36:04;1.50;;;0.80;;
80185;SDS011;69904;52.122;5.422;2024-02-04T10:38:32;0.82;;;0.40;;
80185;SDS011;69904;52.122;5.422;2024-02-04T10:40:59;0.95;;;0.57;;
80185;SDS011;69904;52.122;5.422;2024-02-04T10:43:33;2.85;;;0.65;;
80185;SDS011;69904;52.122;5.422;2024-02-04T10:46:01;2.90;;;0.63;;
80185;SDS011;69904;52.122;5.422;2024-02-04T10:48:55;0.85;;;0.38;;
80185;SDS011;69904;52.122;5.422;2024-02-04T10:51:24;2.53;;;0.50;;
80185;SDS011;69904;52.122;5.422;2024-02-04T10:53:56;1.23;;;0.50;;
80185;SDS011;69904;52.122;5.422;2024-02-04T10:56:37;1.65;;;0.43;;
80185;SDS011;69904;52.122;5.422;2024-02-04T10:59:09;1.35;;;0.20;;
80185;SDS011;69904;52.122;5.422;2024-02-04T11:01:38;2.00;;;0.40;;
80185;SDS011;69904;52.122;5.422;2024-02-04T11:04:05;0.95;;;0.30;;
80185;SDS011;69904;52.122;5.422;2024-02-04T11:06:35;0.65;;;0.28;;
80185;SDS011;69904;52.122;5.422;2024-02-04T11:09:03;1.35;;;0.25;;
80185;SDS011;69904;52.122;5.422;2024-02-04T11:11:32;1.02;;;0.40;;
80185;SDS011;69904;52.122;5.422;2024-02-04T11:19:27;1.05;;;0.40;;
80185;SDS011;69904;52.122;5.422;2024-02-04T11:27:39;0.85;;;0.20;;
80185;SDS011;69904;52.122;5.422;2024-02-04T11:30:06;1.33;;;0.30;;
80185;SDS011;69904;52.122;5.422;2024-02-04T11:32:34;0.32;;;0.20;;
80185;SDS011;69904;52.122;5.422;2024-02-04T11:35:02;1.10;;;0.50;;
80185;SDS011;69904;52.122;5.422;2024-02-04T11:37:33;0.82;;;0.40;;
80185;SDS011;69904;52.122;5.422;2024-02-04T11:40:00;1.23;;;0.50;;
80185;SDS011;69904;52.122;5.422;2024-02-04T11:42:31;2.05;;;0.50;;
80185;SDS011;69904;52.122;5.422;2024-02-04T11:47:34;3.75;;;0.82;;
80185;SDS011;69904;52.122;5.422;2024-02-04T11:50:01;1.63;;;0.80;;
80185;SDS011;69904;52.122;5.422;2024-02-04T11:52:29;1.77;;;0.95;;
80185;SDS011;69904;52.122;5.422;2024-02-04T11:54:56;2.40;;;0.90;;
80185;SDS011;69904;52.122;5.422;2024-02-04T11:57:23;1.40;;;0.95;;
80185;SDS011;69904;52.122;5.422;2024-02-04T11:59:50;3.00;;;1.23;;
80185;SDS011;69904;52.122;5.422;2024-02-04T12:02:18;2.90;;;1.10;;
80185;SDS011;69904;52.122;5.422;2024-02-04T12:04:46;4.60;;;1.85;;
80185;SDS011;69904;52.122;5.422;2024-02-04T12:07:14;2.15;;;1.65;;
80185;SDS011;69904;52.122;5.422;2024-02-04T12:09:41;3.50;;;1.63;;
80185;SDS011;69904;52.122;5.422;2024-02-04T12:12:08;5.88;;;1.48;;
80185;SDS011;69904;52.122;5.422;2024-02-04T12:14:35;2.88;;;1.60;;
80185;SDS011;69904;52.122;5.422;2024-02-04T12:17:11;3.63;;;1.13;;
80185;SDS011;69904;52.122;5.422;2024-02-04T12:19:37;4.93;;;1.92;;
80185;SDS011;69904;52.122;5.422;2024-02-04T12:22:09;4.68;;;1.30;;
80185;SDS011;69904;52.122;5.422;2024-02-04T12:24:36;2.80;;;1.85;;
80185;SDS011;69904;52.122;5.422;2024-02-04T12:27:06;3.85;;;1.50;;
80185;SDS011;69904;52.122;5.422;2024-02-04T12:29:33;3.85;;;1.55;;
80185;SDS011;69904;52.122;5.422;2024-02-04T12:32:00;2.28;;;1.20;;
80185;SDS011;69904;52.122;5.422;2024-02-04T12:34:29;3.03;;;1.35;;
80185;SDS011;69904;52.122;5.422;2024-02-04T12:36:57;5.13;;;1.25;;
80185;SDS011;69904;52.122;5.422;2024-02-04T12:39:24;2.13;;;0.88;;
80185;SDS011;69904;52.122;5.422;2024-02-04T12:41:51;2.75;;;1.13;;
80185;SDS011;69904;52.122;5.422;2024-02-04T12:44:19;2.85;;;0.88;;
80185;SDS011;69904;52.122;5.422;2024-02-04T12:46:45;5.78;;;1.63;;
80185;SDS011;69904;52.122;5.422;2024-02-04T12:49:20;2.03;;;1.05;;
80185;SDS011;69904;52.122;5.422;2024-02-04T12:51:51;1.45;;;0.80;;
80185;SDS011;69904;52.122;5.422;2024-02-04T12:54:22;2.78;;;0.93;;
80185;SDS011;69904;52.122;5.422;2024-02-04T12:56:49;2.83;;;1.00;;
80185;SDS011;69904;52.122;5.422;2024-02-04T12:59:27;3.58;;;0.90;;
80185;SDS011;69904;52.122;5.422;2024-02-04T13:01:59;3.75;;;1.15;;
80185;SDS011;69904;52.122;5.422;2024-02-04T13:04:33;3.35;;;1.20;;
80185;SDS011;69904;52.122;5.422;2024-02-04T13:07:07;6.70;;;1.00;;
80185;SDS011;69904;52.122;5.422;2024-02-04T13:09:43;1.65;;;0.65;;
80185;SDS011;69904;52.122;5.422;2024-02-04T13:12:11;1.25;;;0.88;;
80185;SDS011;69904;52.122;5.422;2024-02-04T13:14:41;3.08;;;0.70;;
80185;SDS011;69904;52.122;5.422;2024-02-04T13:17:08;3.78;;;0.80;;
80185;SDS011;69904;52.122;5.422;2024-02-04T13:19:36;5.05;;;1.42;;
80185;SDS011;69904;52.122;5.422;2024-02-04T13:22:07;0.52;;;0.50;;
80185;SDS011;69904;52.122;5.422;2024-02-04T13:24:37;1.67;;;0.68;;
80185;SDS011;69904;52.122;5.422;2024-02-04T13:27:04;2.28;;;1.13;;
80185;SDS011;69904;52.122;5.422;2024-02-04T13:29:34;2.10;;;0.88;;
80185;SDS011;69904;52.122;5.422;2024-02-04T13:32:01;4.22;;;0.82;;
80185;SDS011;69904;52.122;5.422;2024-02-04T13:34:27;1.85;;;0.57;;
80185;SDS011;69904;52.122;5.422;2024-02-04T13:36:54;3.30;;;0.95;;
80185;SDS011;69904;52.122;5.422;2024-02-04T13:39:20;2.40;;;0.98;;
80185;SDS011;69904;52.122;5.422;2024-02-04T13:41:47;1.65;;;0.60;;
80185;SDS011;69904;52.122;5.422;2024-02-04T13:44:13;2.55;;;1.00;;
80185;SDS011;69904;52.122;5.422;2024-02-04T13:46:40;1.75;;;1.05;;
80185;SDS011;69904;52.122;5.422;2024-02-04T13:49:09;6.85;;;1.63;;
80185;SDS011;69904;52.122;5.422;2024-02-04T13:51:36;3.33;;;1.20;;
80185;SDS011;69904;52.122;5.422;2024-02-04T13:54:10;8.02;;;2.33;;
80185;SDS011;69904;52.122;5.422;2024-02-04T13:56:39;2.85;;;0.88;;
80185;SDS011;69904;52.122;5.422;2024-02-04T13:59:06;3.55;;;1.33;;
80185;SDS011;69904;52.122;5.422;2024-02-04T14:01:33;4.78;;;1.33;;
80185;SDS011;69904;52.122;5.422;2024-02-04T14:04:00;3.83;;;1.45;;
80185;SDS011;69904;52.122;5.422;2024-02-04T14:06:26;5.28;;;1.73;;
80185;SDS011;69904;52.122;5.422;2024-02-04T14:08:53;4.00;;;2.05;;
80185;SDS011;69904;52.122;5.422;2024-02-04T14:11:19;5.20;;;1.92;;
80185;SDS011;69904;52.122;5.422;2024-02-04T14:13:46;5.32;;;1.60;;
80185;SDS011;69904;52.122;5.422;2024-02-04T14:16:12;7.25;;;1.80;;
80185;SDS011;69904;52.122;5.422;2024-02-04T14:18:39;6.50;;;2.17;;
80185;SDS011;69904;52.122;5.422;2024-02-04T14:21:07;4.10;;;1.77;;
80185;SDS011;69904;52.122;5.422;2024-02-04T14:23:33;3.17;;;1.63;;
80185;SDS011;69904;52.122;5.422;2024-02-04T14:26:00;6.90;;;1.80;;
80185;SDS011;69904;52.122;5.422;2024-02-04T14:28:26;6.75;;;1.70;;
80185;SDS011;69904;52.122;5.422;2024-02-04T14:30:53;4.63;;;1.90;;
80185;SDS011;69904;52.122;5.422;2024-02-04T14:33:23;3.08;;;1.80;;
80185;SDS011;69904;52.122;5.422;2024-02-04T14:35:50;4.22;;;2.10;;
80185;SDS011;69904;52.122;5.422;2024-02-04T14:38:16;5.93;;;1.77;;
80185;SDS011;69904;52.122;5.422;2024-02-04T14:40:43;7.32;;;1.55;;
80185;SDS011;69904;52.122;5.422;2024-02-04T14:43:09;4.57;;;1.10;;
80185;SDS011;69904;52.122;5.422;2024-02-04T14:45:36;4.95;;;1.38;;
80185;SDS011;69904;52.122;5.422;2024-02-04T14:48:02;3.15;;;1.33;;
80185;SDS011;69904;52.122;5.422;2024-02-04T14:50:29;2.92;;;1.05;;
80185;SDS011;69904;52.122;5.422;2024-02-04T14:52:57;6.60;;;1.40;;
80185;SDS011;69904;52.122;5.422;2024-02-04T14:55:23;1.77;;;1.00;;
80185;SDS011;69904;52.122;5.422;2024-02-04T14:57:50;1.77;;;1.25;;
80185;SDS011;69904;52.122;5.422;2024-02-04T15:00:16;5.35;;;1.10;;
80185;SDS011;69904;52.122;5.422;2024-02-04T15:02:43;3.40;;;1.08;;
80185;SDS011;69904;52.122;5.422;2024-02-04T15:07:38;4.88;;;1.27;;
80185;SDS011;69904;52.122;5.422;2024-02-04T15:10:04;8.30;;;1.50;;
80185;SDS011;69904;52.122;5.422;2024-02-04T15:12:31;2.10;;;1.05;;
80185;SDS011;69904;52.122;5.422;2024-02-04T15:14:58;3.70;;;1.63;;
80185;SDS011;69904;52.122;5.422;2024-02-04T15:17:26;8.98;;;1.85;;
80185;SDS011;69904;52.122;5.422;2024-02-04T15:19:53;5.00;;;1.27;;
80185;SDS011;69904;52.122;5.422;2024-02-04T15:22:20;4.43;;;1.13;;
80185;SDS011;69904;52.122;5.422;2024-02-04T15:24:47;3.70;;;1.10;;
80185;SDS011;69904;52.122;5.422;2024-02-04T15:27:14;5.15;;;1.35;;
80185;SDS011;69904;52.122;5.422;2024-02-04T15:29:41;5.53;;;1.30;;